Time;durP1;ratioP1;P1;durP2;ratioP2;P2;SDS_P1;SDS_P2;PMS_P1;PMS_P2;Temp;Humidity;BMP_temperature;BMP_pressure;BME280_temperature;BME280_humidity;BME280_pressure;Samples;Min_cycle;Max_cycle;Signal;HPM_P1;HPM_P2
2022/11/15 00:01:24;;;;;;;193.70;89.90;;;8.90;99.90;;;;;;5116213;28;20497;-72
2022/11/15 00:04:10;;;;;;;188.20;89.85;;;8.70;99.90;;;;;;5116425;28;20377;-72
2022/11/15 00:06:54;;;;;;;178.82;82.07;;;8.80;99.90;;;;;;5116127;28;20038;-72
2022/11/15 00:09:38;;;;;;;180.45;85.43;;;8.80;99.90;;;;;;5116114;28;20089;-72
2022/11/15 00:12:23;;;;;;;181.18;85.18;;;8.70;99.90;;;;;;5116499;28;20046;-72
2022/11/15 00:15:08;;;;;;;169.57;81.72;;;8.70;99.90;;;;;;5116157;28;20053;-72
2022/11/15 00:17:52;;;;;;;173.57;82.18;;;8.80;99.90;;;;;;5116039;28;20081;-72
2022/11/15 00:20:37;;;;;;;205.93;96.35;;;8.70;99.90;;;;;;5116285;28;20034;-72
2022/11/15 00:23:22;;;;;;;195.88;92.20;;;8.80;99.90;;;;;;5116045;28;20046;-72
2022/11/15 00:26:10;;;;;;;191.63;86.07;;;9.00;99.90;;;;;;5115798;28;20503;-72
2022/11/15 00:28:55;;;;;;;188.73;83.18;;;9.10;99.90;;;;;;5115797;28;20516;-72
2022/11/15 00:31:39;;;;;;;207.35;90.05;;;8.90;99.90;;;;;;5116025;28;20051;-72
2022/11/15 00:34:24;;;;;;;209.20;87.38;;;8.80;99.90;;;;;;5100763;28;20189;-72
2022/11/15 00:37:09;;;;;;;214.63;92.70;;;9.00;99.90;;;;;;5115745;28;20473;-72
2022/11/15 00:39:53;;;;;;;219.38;91.45;;;9.00;99.90;;;;;;5115666;28;20463;-72
2022/11/15 00:42:38;;;;;;;224.20;91.97;;;8.70;99.90;;;;;;5115654;28;20064;-72
2022/11/15 00:45:23;;;;;;;226.77;95.22;;;8.80;99.90;;;;;;5115675;28;20031;-72
2022/11/15 00:48:08;;;;;;;225.35;90.05;;;8.80;99.90;;;;;;5115344;28;20047;-72
2022/11/15 00:50:52;;;;;;;225.32;89.90;;;8.70;99.90;;;;;;5115437;28;20047;-73
2022/11/15 00:53:37;;;;;;;235.85;93.75;;;8.70;99.90;;;;;;5100159;28;20134;-72
2022/11/15 00:56:22;;;;;;;248.90;97.28;;;8.70;99.90;;;;;;5115325;28;20434;-73
2022/11/15 00:59:06;;;;;;;239.30;94.15;;;8.80;99.90;;;;;;5115117;28;20082;-72
2022/11/15 01:01:51;;;;;;;242.63;95.13;;;8.90;99.90;;;;;;5115180;28;20030;-72
2022/11/15 01:04:35;;;;;;;262.77;100.35;;;8.80;99.90;;;;;;5115179;28;20102;-72
2022/11/15 01:07:20;;;;;;;248.77;97.90;;;8.80;99.90;;;;;;5115470;28;20131;-72
2022/11/15 01:10:06;;;;;;;258.65;98.15;;;8.70;99.90;;;;;;5102691;28;20039;-72
2022/11/15 01:12:50;;;;;;;267.38;97.13;;;8.80;99.90;;;;;;5094745;28;20042;-72
2022/11/15 01:15:40;;;;;;;263.90;97.25;;;8.80;99.90;;;;;;5095165;28;20051;-72
2022/11/15 01:18:24;;;;;;;262.42;96.88;;;8.70;99.90;;;;;;5094646;28;20089;-72
2022/11/15 01:21:12;;;;;;;257.55;90.97;;;8.80;99.90;;;;;;5094813;28;20058;-73
2022/11/15 01:23:56;;;;;;;276.65;97.85;;;8.80;99.90;;;;;;5094703;28;20079;-73
2022/11/15 01:26:41;;;;;;;276.83;100.43;;;8.80;99.90;;;;;;5094825;28;20046;-73
2022/11/15 01:29:25;;;;;;;291.73;101.03;;;8.90;99.90;;;;;;5094541;28;20459;-72
2022/11/15 01:32:10;;;;;;;267.67;98.05;;;8.80;99.90;;;;;;5094557;28;20094;-73
2022/11/15 01:34:55;;;;;;;287.35;101.45;;;8.90;99.90;;;;;;5094510;28;20039;-73
2022/11/15 01:37:39;;;;;;;276.95;98.78;;;8.80;99.90;;;;;;5079090;28;20094;-73
2022/11/15 01:40:24;;;;;;;305.27;103.32;;;8.80;99.90;;;;;;5094708;28;20542;-72
2022/11/15 01:43:23;;;;;;;271.23;96.55;;;8.70;99.90;;;;;;5094469;28;20067;-73
2022/11/15 01:46:32;;;;;;;284.45;96.80;;;8.80;99.90;;;;;;5094592;28;20043;-72
2022/11/15 01:49:21;;;;;;;294.08;100.88;;;8.60;99.90;;;;;;5094317;28;20043;-72
2022/11/15 01:52:12;;;;;;;294.45;101.07;;;8.90;99.90;;;;;;5079346;28;20527;-72
2022/11/15 01:55:03;;;;;;;;;;;8.90;99.90;;;;;;5094686;28;20106;-72
2022/11/15 01:57:52;;;;;;;274.73;94.72;;;8.80;99.90;;;;;;5094255;28;19970;-72
2022/11/15 02:00:37;;;;;;;270.33;94.00;;;8.80;99.90;;;;;;5114450;28;20066;-72
2022/11/15 02:03:26;;;;;;;265.60;95.93;;;8.90;99.90;;;;;;5116779;28;20057;-72
2022/11/15 02:06:11;;;;;;;280.70;93.38;;;8.80;99.90;;;;;;5118756;28;20085;-72
2022/11/15 02:08:57;;;;;;;276.40;92.32;;;8.80;99.90;;;;;;5121210;27;20050;-72
2022/11/15 02:11:43;;;;;;;275.90;92.82;;;8.80;99.90;;;;;;5139218;27;20154;-72
2022/11/15 02:14:30;;;;;;;277.25;95.97;;;8.70;99.90;;;;;;5139135;27;20046;-71
2022/11/15 02:17:17;;;;;;;282.77;94.32;;;8.80;99.90;;;;;;5138972;27;20037;-71
2022/11/15 02:20:39;;;;;;;335.25;119.03;;;8.90;99.90;;;;;;5138869;27;20095;-71
2022/11/15 02:23:38;;;;;;;347.35;115.38;;;9.10;99.90;;;;;;5139207;27;20549;-71
2022/11/15 02:26:50;;;;;;;286.75;101.75;;;9.20;99.90;;;;;;5138722;27;20046;-72
2022/11/15 02:29:53;;;;;;;310.67;100.55;;;9.20;99.90;;;;;;5123330;27;20043;-71
2022/11/15 02:32:50;;;;;;;336.85;105.78;;;9.20;99.90;;;;;;5138583;27;20062;-72
2022/11/15 02:35:58;;;;;;;289.02;101.30;;;8.90;99.90;;;;;;5138544;27;20128;-71
2022/11/15 02:38:59;;;;;;;294.88;97.28;;;9.00;99.90;;;;;;5138876;27;20046;-71
2022/11/15 02:41:57;;;;;;;279.60;95.45;;;8.80;99.90;;;;;;5138302;27;20056;-72
2022/11/15 02:44:45;;;;;;;293.00;96.55;;;8.70;99.90;;;;;;5138615;27;20100;-71
2022/11/15 02:47:36;;;;;;;269.17;93.10;;;8.70;99.90;;;;;;5138460;27;20041;-71
2022/11/15 02:50:26;;;;;;;271.90;92.20;;;8.80;99.90;;;;;;5138424;27;20527;-71
2022/11/15 02:53:10;;;;;;;262.92;96.70;;;8.90;99.90;;;;;;5138081;27;20042;-71
2022/11/15 02:55:57;;;;;;;264.55;95.95;;;8.80;99.90;;;;;;5138147;27;20046;-71
2022/11/15 02:58:59;;;;;;;257.65;95.45;;;8.80;99.90;;;;;;5138179;27;20086;-71
2022/11/15 03:02:02;;;;;;;258.60;93.18;;;8.80;99.90;;;;;;5138159;27;20034;-71
2022/11/15 03:04:49;;;;;;;236.30;93.95;;;8.70;99.90;;;;;;5138066;27;20392;-72
2022/11/15 03:07:50;;;;;;;239.45;92.22;;;8.90;99.90;;;;;;5137938;27;20046;-71
2022/11/15 03:11:10;;;;;;;245.95;96.45;;;8.90;99.90;;;;;;5121027;27;20101;-72
2022/11/15 03:14:17;;;;;;;242.23;95.25;;;8.90;99.90;;;;;;5116399;28;20050;-71
2022/11/15 03:17:26;;;;;;;246.15;93.57;;;9.00;99.90;;;;;;5117104;28;20043;-72
2022/11/15 03:20:13;;;;;;;253.27;93.63;;;9.10;99.90;;;;;;5116665;28;20038;-71
2022/11/15 03:23:04;;;;;;;253.25;97.40;;;9.00;99.90;;;;;;5117284;28;20514;-72
2022/11/15 03:25:51;;;;;;;236.18;91.30;;;8.90;99.90;;;;;;5117223;28;20447;-71
2022/11/15 03:28:47;;;;;;;244.95;91.68;;;8.90;99.90;;;;;;5116719;28;20039;-71
2022/11/15 03:31:46;;;;;;;248.68;95.28;;;8.90;99.90;;;;;;5117145;28;20495;-72
2022/11/15 03:34:56;;;;;;;237.30;94.47;;;8.80;99.90;;;;;;5117273;28;20039;-71
2022/11/15 03:37:54;;;;;;;238.38;93.88;;;8.80;99.90;;;;;;5116819;28;20069;-72
2022/11/15 03:40:42;;;;;;;244.23;90.05;;;8.90;99.90;;;;;;5116859;28;20074;-72
2022/11/15 03:44:16;;;;;;;260.00;94.22;;;8.90;99.90;;;;;;5116937;28;20042;-71
2022/11/15 03:47:11;;;;;;;249.50;91.22;;;8.90;99.90;;;;;;5054031;28;20484;-71
2022/11/15 03:50:07;;;;;;;262.35;95.85;;;8.90;99.90;;;;;;5116467;28;20081;-72
2022/11/15 03:52:54;;;;;;;259.05;94.55;;;8.80;99.90;;;;;;5116718;28;20046;-72
2022/11/15 03:55:39;;;;;;;253.60;90.00;;;8.90;99.90;;;;;;5116407;28;20063;-72
2022/11/15 03:58:23;;;;;;;270.13;97.30;;;8.90;99.90;;;;;;5098709;28;20081;-71
2022/11/15 04:01:08;;;;;;;277.92;93.78;;;8.80;99.90;;;;;;5096467;28;20043;-71
2022/11/15 04:03:53;;;;;;;261.50;91.93;;;8.70;99.90;;;;;;5096083;28;20538;-72
2022/11/15 04:06:37;;;;;;;259.83;93.75;;;8.60;99.90;;;;;;5095770;28;20039;-71
2022/11/15 04:09:22;;;;;;;252.95;95.78;;;8.80;99.90;;;;;;5095753;28;20496;-72
2022/11/15 04:12:06;;;;;;;246.02;88.70;;;8.80;99.90;;;;;;5095614;28;20051;-72
2022/11/15 04:15:06;;;;;;;260.02;92.43;;;8.90;99.90;;;;;;5095833;28;20064;-72
2022/11/15 04:17:54;;;;;;;238.15;90.53;;;9.00;99.90;;;;;;5095483;28;20089;-71
2022/11/15 04:26:44;;;;;;;231.40;87.90;;;8.90;99.90;;;;;;5095016;28;20385;-71
2022/11/15 04:29:35;;;;;;;254.57;98.45;;;8.90;99.90;;;;;;5095607;28;20105;-71
2022/11/15 04:32:19;;;;;;;232.73;91.82;;;8.90;99.90;;;;;;5095278;28;20444;-72
2022/11/15 04:35:04;;;;;;;213.02;83.88;;;8.90;99.90;;;;;;5095515;28;20520;-71
2022/11/15 04:37:48;;;;;;;242.02;93.05;;;8.80;99.90;;;;;;5095342;28;20512;-71
2022/11/15 04:40:33;;;;;;;224.60;90.63;;;8.80;99.90;;;;;;5095301;28;20047;-72
2022/11/15 04:43:17;;;;;;;250.85;93.88;;;8.80;99.90;;;;;;5095344;28;20059;-72
2022/11/15 04:46:02;;;;;;;237.25;90.00;;;8.60;99.90;;;;;;5095248;28;20039;-72
2022/11/15 04:48:46;;;;;;;237.48;92.30;;;8.60;99.90;;;;;;5094841;28;20102;-72
2022/11/15 04:51:31;;;;;;;256.33;93.65;;;8.70;99.90;;;;;;5095279;28;20085;-72
2022/11/15 04:54:16;;;;;;;228.88;87.78;;;8.60;99.90;;;;;;5095121;28;20046;-72
2022/11/15 04:57:01;;;;;;;223.27;89.03;;;8.60;99.90;;;;;;5095007;28;20047;-72
2022/11/15 04:59:46;;;;;;;243.98;93.60;;;8.70;99.90;;;;;;5108721;28;20131;-72
2022/11/15 05:04:18;;;;;;;241.25;91.88;;;8.70;99.90;;;;;;5114975;28;20488;-72
2022/11/15 05:05:35;;;;;;;238.85;90.25;;;8.70;99.90;;;;;;5115116;28;20054;-71
2022/11/15 05:08:19;;;;;;;225.45;85.70;;;8.70;99.90;;;;;;5115323;28;20085;-72
2022/11/15 05:11:04;;;;;;;229.65;90.13;;;8.70;99.90;;;;;;5074873;28;20087;-72
2022/11/15 05:13:49;;;;;;;260.50;94.95;;;8.70;99.90;;;;;;5059381;28;20124;-72
2022/11/15 05:16:33;;;;;;;243.95;95.55;;;8.80;99.90;;;;;;5074282;28;20497;-72
2022/11/15 05:19:18;;;;;;;250.23;94.88;;;8.80;99.90;;;;;;5074482;28;20038;-72
2022/11/15 05:22:03;;;;;;;256.15;98.18;;;8.80;99.90;;;;;;5074525;28;20044;-72
2022/11/15 05:24:47;;;;;;;267.52;95.38;;;8.80;99.90;;;;;;5074511;28;20573;-72
2022/11/15 05:27:33;;;;;;;243.95;94.32;;;8.70;99.90;;;;;;5074279;28;20085;-72
2022/11/15 05:30:18;;;;;;;237.27;94.97;;;8.60;99.90;;;;;;5074014;28;20547;-72
2022/11/15 05:33:03;;;;;;;243.35;95.78;;;8.70;99.90;;;;;;5074313;28;20048;-71
2022/11/15 05:35:54;;;;;;;254.00;94.95;;;8.70;99.90;;;;;;5074423;28;20101;-72
2022/11/15 05:38:39;;;;;;;217.63;87.38;;;8.60;99.90;;;;;;5076815;28;20051;-72
2022/11/15 05:41:40;;;;;;;238.57;93.65;;;8.60;99.90;;;;;;5078392;28;20310;-72
2022/11/15 05:44:26;;;;;;;244.07;94.35;;;8.60;99.90;;;;;;5078174;28;20126;-72
2022/11/15 05:47:13;;;;;;;254.63;100.72;;;8.70;99.90;;;;;;5078270;28;20074;-72
2022/11/15 05:49:57;;;;;;;226.20;92.35;;;8.70;99.90;;;;;;5077950;28;20551;-72
2022/11/15 05:52:44;;;;;;;267.23;105.55;;;8.70;99.90;;;;;;5077960;28;20043;-72
2022/11/15 05:55:28;;;;;;;245.02;96.78;;;8.70;99.90;;;;;;5078082;28;20082;-72
2022/11/15 05:58:13;;;;;;;262.08;107.03;;;8.80;99.90;;;;;;5078489;28;20050;-71
2022/11/15 06:00:57;;;;;;;342.35;107.80;;;8.90;99.90;;;;;;5098283;28;20109;-72
2022/11/15 06:03:42;;;;;;;265.23;103.13;;;8.80;99.90;;;;;;5098254;28;20062;-72
2022/11/15 06:06:28;;;;;;;289.63;112.35;;;8.90;99.90;;;;;;5098004;28;20071;-72
2022/11/15 06:09:12;;;;;;;248.43;103.20;;;8.90;99.90;;;;;;5108609;27;20030;-72
2022/11/15 06:11:57;;;;;;;283.45;112.82;;;8.80;99.90;;;;;;5139072;27;20491;-72
2022/11/15 06:14:42;;;;;;;289.83;111.93;;;8.70;99.90;;;;;;5138967;27;20050;-72
2022/11/15 06:17:26;;;;;;;308.55;118.88;;;8.60;99.90;;;;;;5138833;27;20124;-72
2022/11/15 06:20:11;;;;;;;278.48;115.95;;;8.60;99.90;;;;;;5138619;27;20038;-72
2022/11/15 06:23:04;;;;;;;331.77;141.73;;;8.70;99.90;;;;;;5114694;27;20038;-72
2022/11/15 06:25:48;;;;;;;390.77;185.23;;;8.70;99.90;;;;;;5097484;28;20054;-72
2022/11/15 06:28:33;;;;;;;321.55;125.82;;;8.70;99.90;;;;;;5098234;28;20047;-72
2022/11/15 06:31:17;;;;;;;314.48;117.30;;;8.70;99.90;;;;;;5108725;28;20041;-72
2022/11/15 06:34:02;;;;;;;290.38;114.05;;;8.80;99.90;;;;;;5117797;28;20046;-72
2022/11/15 06:36:46;;;;;;;333.15;121.65;;;8.80;99.90;;;;;;5102245;28;20058;-72
2022/11/15 06:39:31;;;;;;;332.65;127.18;;;8.70;99.90;;;;;;5124965;27;20041;-72
2022/11/15 06:42:16;;;;;;;350.15;130.60;;;8.70;99.90;;;;;;5117207;28;20071;-72
2022/11/15 06:45:01;;;;;;;284.33;118.85;;;8.70;99.90;;;;;;5115938;28;20038;-72
2022/11/15 06:47:47;;;;;;;299.23;116.63;;;8.80;99.90;;;;;;5112476;28;20085;-72
2022/11/15 06:50:31;;;;;;;323.80;119.35;;;8.70;99.90;;;;;;5101504;28;20054;-72
2022/11/15 06:53:15;;;;;;;239.48;102.55;;;8.70;99.90;;;;;;5104558;28;20368;-72
2022/11/15 06:56:05;;;;;;;299.55;113.85;;;8.80;99.90;;;;;;5107917;28;20089;-72
2022/11/15 06:58:53;;;;;;;261.17;107.82;;;8.70;99.90;;;;;;5109858;27;20070;-72
2022/11/15 07:01:37;;;;;;;319.65;120.05;;;8.80;99.90;;;;;;5110380;28;20039;-72
2022/11/15 07:04:22;;;;;;;279.35;114.65;;;8.90;99.90;;;;;;5113371;28;20078;-72
2022/11/15 07:07:15;;;;;;;327.75;125.07;;;8.90;99.90;;;;;;5108867;28;20138;-72
2022/11/15 07:09:59;;;;;;;292.85;125.40;;;8.90;99.90;;;;;;5115214;28;20046;-72
2022/11/15 07:12:47;;;;;;;281.25;122.70;;;9.00;99.90;;;;;;5112294;28;20130;-72
2022/11/15 07:15:34;;;;;;;266.35;114.43;;;8.90;99.90;;;;;;5104472;28;20118;-72
2022/11/15 07:18:28;;;;;;;263.08;115.88;;;9.00;99.90;;;;;;5109372;27;20081;-72
2022/11/15 07:21:15;;;;;;;270.08;118.40;;;9.10;99.90;;;;;;5113728;27;20496;-72
2022/11/15 07:24:01;;;;;;;276.33;121.80;;;9.20;99.90;;;;;;5101254;28;20042;-72
2022/11/15 07:26:47;;;;;;;274.73;118.55;;;9.10;99.90;;;;;;5113173;28;20488;-73
2022/11/15 07:29:33;;;;;;;367.38;131.20;;;9.20;99.90;;;;;;5098197;28;20614;-73
2022/11/15 07:32:18;;;;;;;265.65;117.45;;;9.10;99.90;;;;;;5114644;28;20046;-72
2022/11/15 07:35:03;;;;;;;298.95;120.53;;;9.10;99.90;;;;;;5113400;28;20420;-72
2022/11/15 07:38:02;;;;;;;275.13;123.78;;;9.30;99.90;;;;;;5097769;28;20043;-73
2022/11/15 07:40:46;;;;;;;292.02;128.35;;;9.30;99.90;;;;;;5099060;28;20050;-73
2022/11/15 07:43:33;;;;;;;316.25;133.43;;;9.40;99.90;;;;;;5115222;28;20082;-72
2022/11/15 07:46:18;;;;;;;323.55;132.70;;;9.40;99.90;;;;;;5114667;28;20042;-73
2022/11/15 07:49:02;;;;;;;339.05;138.07;;;9.40;99.90;;;;;;5110625;27;20043;-72
2022/11/15 07:51:47;;;;;;;307.15;131.40;;;9.50;99.90;;;;;;5109921;28;20125;-72
2022/11/15 07:54:32;;;;;;;298.58;129.30;;;9.60;99.90;;;;;;5113960;28;20100;-73
2022/11/15 07:57:16;;;;;;;281.20;122.90;;;9.70;99.90;;;;;;5117300;27;20168;-73
2022/11/15 08:00:02;;;;;;;314.45;131.18;;;9.70;99.90;;;;;;5116495;27;20073;-73
2022/11/15 08:02:46;;;;;;;298.13;129.70;;;9.60;99.90;;;;;;5121021;27;20034;-73
2022/11/15 08:05:31;;;;;;;313.55;130.68;;;9.70;99.90;;;;;;5135071;27;20400;-73
2022/11/15 08:08:15;;;;;;;338.02;140.05;;;9.80;99.90;;;;;;5104048;27;20090;-72
2022/11/15 08:11:01;;;;;;;364.73;143.82;;;9.90;99.90;;;;;;5112161;28;20034;-73
2022/11/15 08:13:46;;;;;;;332.63;140.75;;;9.90;99.90;;;;;;5101972;28;20121;-73
2022/11/15 08:16:31;;;;;;;375.30;147.60;;;10.00;99.90;;;;;;5108591;27;20042;-73
2022/11/15 08:19:15;;;;;;;376.70;151.82;;;9.90;99.90;;;;;;5107428;28;20038;-73
2022/11/15 08:22:00;;;;;;;359.83;145.68;;;9.80;99.90;;;;;;5115095;28;20093;-73
2022/11/15 08:24:45;;;;;;;336.73;140.55;;;9.80;99.90;;;;;;5106680;27;20115;-73
2022/11/15 08:27:29;;;;;;;358.33;148.43;;;10.10;99.90;;;;;;5119871;27;20053;-73
2022/11/15 08:30:15;;;;;;;351.27;147.45;;;10.30;99.90;;;;;;5126867;27;20052;-73
2022/11/15 08:32:59;;;;;;;331.55;143.10;;;10.50;99.90;;;;;;5116511;27;20038;-73
2022/11/15 08:35:44;;;;;;;301.63;133.77;;;10.50;99.90;;;;;;5113699;28;20042;-73
2022/11/15 08:38:35;;;;;;;300.77;127.43;;;10.70;99.90;;;;;;5100385;27;20117;-73
2022/11/15 08:41:26;;;;;;;320.13;137.67;;;10.80;99.90;;;;;;5099492;27;20046;-73
2022/11/15 08:44:10;;;;;;;325.00;132.95;;;10.80;99.90;;;;;;5106096;28;20313;-73
2022/11/15 08:46:55;;;;;;;333.67;139.57;;;10.80;99.90;;;;;;5108311;27;20151;-73
2022/11/15 08:49:40;;;;;;;373.33;147.63;;;10.80;99.90;;;;;;5127782;27;20101;-73
2022/11/15 08:52:24;;;;;;;342.83;144.45;;;10.60;99.90;;;;;;5133940;27;20100;-73
2022/11/15 08:55:12;;;;;;;342.08;142.43;;;10.80;99.90;;;;;;5128819;27;20041;-73
2022/11/15 08:57:57;;;;;;;326.90;138.25;;;10.80;99.90;;;;;;5123363;27;20128;-73
2022/11/15 09:00:42;;;;;;;327.83;138.05;;;11.10;99.90;;;;;;5103673;28;20435;-73
2022/11/15 09:03:28;;;;;;;336.60;140.50;;;11.40;99.90;;;;;;5102716;28;20039;-72
2022/11/15 09:06:13;;;;;;;336.60;140.23;;;11.60;99.90;;;;;;5119503;27;20062;-73
2022/11/15 09:08:58;;;;;;;354.20;149.25;;;11.60;99.90;;;;;;5099734;28;20042;-73
2022/11/15 09:11:42;;;;;;;330.35;140.10;;;11.70;99.90;;;;;;5123311;27;20512;-73
2022/11/15 09:14:27;;;;;;;319.15;141.27;;;11.90;99.90;;;;;;5106085;28;20046;-73
2022/11/15 09:17:11;;;;;;;331.15;132.48;;;11.90;99.90;;;;;;5104241;28;20050;-73
2022/11/15 09:19:59;;;;;;;320.65;131.63;;;12.00;99.90;;;;;;5107139;28;20085;-73
2022/11/15 09:22:44;;;;;;;321.33;133.65;;;12.00;99.90;;;;;;5096827;28;20043;-73
2022/11/15 09:25:29;;;;;;;304.90;133.82;;;11.80;99.90;;;;;;5097198;28;20408;-73
2022/11/15 09:28:18;;;;;;;310.55;132.05;;;12.00;99.90;;;;;;5107133;28;20118;-73
2022/11/15 09:31:04;;;;;;;303.05;128.80;;;12.00;99.90;;;;;;5105450;28;20054;-74
2022/11/15 09:33:49;;;;;;;314.88;133.57;;;12.30;99.90;;;;;;5101112;28;20038;-74
2022/11/15 09:36:34;;;;;;;293.95;127.80;;;12.20;99.90;;;;;;5103446;28;20055;-74
2022/11/15 09:39:19;;;;;;;281.70;123.20;;;12.20;99.90;;;;;;5101169;28;20097;-74
2022/11/15 09:42:36;;;;;;;283.15;122.05;;;12.10;99.90;;;;;;5098273;28;20404;-73
2022/11/15 09:45:48;;;;;;;265.25;119.65;;;12.30;99.90;;;;;;5106629;28;20096;-73
2022/11/15 09:48:46;;;;;;;300.92;125.82;;;12.30;99.90;;;;;;5100879;28;20166;-73
2022/11/15 09:51:34;;;;;;;288.08;121.75;;;12.30;99.90;;;;;;5113631;28;20126;-73
2022/11/15 09:54:36;;;;;;;313.10;126.47;;;12.20;99.90;;;;;;5114130;28;20030;-73
2022/11/15 09:57:16;;;;;;;292.67;127.47;;;12.30;99.90;;;;;;5119377;28;20035;-73
2022/11/15 10:00:10;;;;;;;280.65;118.93;;;12.70;99.90;;;;;;5094589;28;20047;-73
2022/11/15 10:02:51;;;;;;;266.67;113.72;;;13.20;99.90;;;;;;5113415;28;20059;-73
2022/11/15 10:05:21;;;;;;;260.15;112.80;;;13.50;99.90;;;;;;5132799;28;20019;-73
2022/11/15 10:08:02;;;;;;;242.80;108.93;;;13.90;99.90;;;;;;5128037;28;20066;-74
2022/11/15 10:10:31;;;;;;;229.85;110.38;;;14.30;99.90;;;;;;5132825;28;20601;-74
2022/11/15 10:12:58;;;;;;;220.75;103.75;;;14.50;99.90;;;;;;5134328;28;20109;-73
2022/11/15 10:15:25;;;;;;;241.57;111.07;;;14.70;99.90;;;;;;5134105;28;20418;-74
2022/11/15 10:18:41;;;;;;;283.90;128.60;;;14.80;99.90;;;;;;5133051;28;20035;-74
2022/11/15 10:21:21;;;;;;;272.35;118.03;;;14.70;99.90;;;;;;5070214;28;20482;-74
2022/11/15 10:23:48;;;;;;;261.08;117.40;;;14.70;99.90;;;;;;5049657;28;20029;-74
2022/11/15 10:26:17;;;;;;;246.07;116.40;;;14.50;99.90;;;;;;5053990;28;20037;-74
2022/11/15 10:28:49;;;;;;;244.65;116.65;;;14.40;99.90;;;;;;5056196;28;20033;-75
2022/11/15 10:31:39;;;;;;;262.08;122.38;;;14.60;99.90;;;;;;5054000;28;20032;-74
2022/11/15 10:34:18;;;;;;;264.00;122.20;;;15.00;99.90;;;;;;5054601;28;20029;-74
2022/11/15 10:36:46;;;;;;;249.82;120.90;;;15.10;99.90;;;;;;5053472;28;20124;-74
2022/11/15 10:39:13;;;;;;;243.38;112.95;;;15.10;99.90;;;;;;5054355;28;20033;-74
2022/11/15 10:41:42;;;;;;;244.73;116.35;;;15.00;99.90;;;;;;5053650;28;20037;-74
2022/11/15 10:44:16;;;;;;;248.60;117.10;;;15.00;99.90;;;;;;5053584;28;20036;-74
2022/11/15 10:46:50;;;;;;;245.05;116.40;;;15.10;99.90;;;;;;5060167;28;20036;-74
2022/11/15 10:49:18;;;;;;;251.02;115.60;;;15.10;99.90;;;;;;5052721;28;20151;-75
2022/11/15 10:51:53;;;;;;;259.23;118.85;;;15.00;99.90;;;;;;5086607;28;20489;-74
2022/11/15 10:54:40;;;;;;;255.85;118.53;;;15.10;99.90;;;;;;5115083;28;20500;-74
2022/11/15 10:57:18;;;;;;;243.10;110.40;;;15.00;99.90;;;;;;5116985;28;20024;-74
2022/11/15 10:59:51;;;;;;;241.00;113.10;;;14.70;99.90;;;;;;5095446;28;20130;-74
2022/11/15 11:02:37;;;;;;;227.20;112.40;;;14.50;99.90;;;;;;5110252;28;20099;-74
2022/11/15 11:05:34;;;;;;;227.48;109.80;;;14.70;99.90;;;;;;5102205;28;20028;-74
2022/11/15 11:08:19;;;;;;;235.63;109.10;;;15.00;99.90;;;;;;5105913;28;20452;-74
2022/11/15 11:11:01;;;;;;;213.35;100.43;;;15.70;99.90;;;;;;5101140;27;20050;-75
2022/11/15 11:13:36;;;;;;;191.63;96.75;;;16.50;99.90;;;;;;5102898;28;20034;-75
2022/11/15 11:16:13;;;;;;;200.05;96.22;;;16.80;99.90;;;;;;5106438;28;20482;-75
2022/11/15 11:18:45;;;;;;;203.27;99.40;;;17.40;99.90;;;;;;5107871;28;20199;-75
2022/11/15 11:21:16;;;;;;;216.45;104.55;;;17.80;98.00;;;;;;5102526;28;20036;-75
2022/11/15 11:24:12;;;;;;;207.05;96.45;;;17.70;96.20;;;;;;5110487;27;20074;-75
2022/11/15 11:27:00;;;;;;;216.73;100.38;;;17.70;96.70;;;;;;5090092;28;20043;-75
2022/11/15 11:30:03;;;;;;;210.45;100.20;;;18.10;95.80;;;;;;5073082;28;20035;-76
2022/11/15 11:33:06;;;;;;;227.70;103.15;;;18.30;93.80;;;;;;5098782;28;20024;-77
2022/11/15 11:35:56;;;;;;;222.23;104.88;;;17.80;94.50;;;;;;5106010;28;20023;-77
2022/11/15 11:38:42;;;;;;;226.15;98.68;;;17.60;94.40;;;;;;5101448;28;20020;-76
2022/11/15 11:41:17;;;;;;;235.45;106.35;;;17.80;94.80;;;;;;5088585;28;20024;-76
2022/11/15 11:43:55;;;;;;;256.10;108.07;;;18.30;94.40;;;;;;5103692;28;20123;-77
2022/11/15 11:46:33;;;;;;;380.35;137.27;;;18.30;93.60;;;;;;5100701;27;20023;-77
2022/11/15 11:49:12;;;;;;;540.80;162.57;;;18.20;92.30;;;;;;5104087;28;20084;-76
2022/11/15 11:51:51;;;;;;;619.58;189.05;;;17.90;92.50;;;;;;5102762;28;20019;-76
2022/11/15 11:54:37;;;;;;;627.90;187.27;;;17.20;93.20;;;;;;5106213;28;20019;-76
2022/11/15 11:57:10;;;;;;;650.83;191.85;;;16.70;95.50;;;;;;5115695;28;20074;-76
2022/11/15 11:59:48;;;;;;;718.63;213.88;;;16.50;95.80;;;;;;5103202;28;20131;-75
2022/11/15 12:02:26;;;;;;;777.15;230.13;;;16.10;96.40;;;;;;5113091;28;20443;-76
2022/11/15 12:05:22;;;;;;;815.45;247.07;;;15.70;97.90;;;;;;5109130;28;20392;-75
2022/11/15 12:07:50;;;;;;;803.95;251.18;;;15.40;99.90;;;;;;5092503;28;20050;-75
2022/11/15 12:10:24;;;;;;;830.95;257.30;;;15.00;99.90;;;;;;5095298;28;20059;-75
2022/11/15 12:13:02;;;;;;;851.75;256.25;;;15.00;99.90;;;;;;5115423;28;20103;-75
2022/11/15 12:15:35;;;;;;;865.85;272.80;;;15.10;99.90;;;;;;5115841;28;20051;-76
2022/11/15 12:18:01;;;;;;;838.70;265.55;;;15.10;99.90;;;;;;5108495;28;20058;-75
2022/11/15 12:20:34;;;;;;;881.92;279.95;;;15.00;99.90;;;;;;5110641;28;20070;-75
2022/11/15 12:23:05;;;;;;;923.78;292.15;;;14.90;99.90;;;;;;5108523;28;20024;-75
2022/11/15 12:25:34;;;;;;;948.67;301.80;;;14.70;99.90;;;;;;5109650;28;20023;-75
2022/11/15 12:28:04;;;;;;;969.45;306.50;;;14.40;99.90;;;;;;5112053;28;20416;-75
2022/11/15 12:31:02;;;;;;;966.65;311.45;;;14.30;99.90;;;;;;5106565;28;20028;-75
2022/11/15 12:33:36;;;;;;;948.03;308.77;;;14.30;99.90;;;;;;5060700;28;20447;-75
2022/11/15 12:36:05;;;;;;;965.70;305.65;;;14.10;99.90;;;;;;5114413;28;20034;-75
2022/11/15 12:38:58;;;;;;;920.00;298.45;;;14.10;99.90;;;;;;5110288;28;20020;-75
2022/11/15 12:41:31;;;;;;;926.22;301.70;;;14.00;99.90;;;;;;5112184;27;20026;-75
2022/11/15 12:43:59;;;;;;;806.97;270.35;;;14.00;99.90;;;;;;5121084;27;20066;-75
2022/11/15 12:46:31;;;;;;;788.33;268.95;;;14.00;99.90;;;;;;5107684;28;20076;-75
2022/11/15 12:49:02;;;;;;;754.55;257.00;;;14.00;99.90;;;;;;5111894;28;20080;-75
2022/11/15 12:51:43;;;;;;;760.60;263.23;;;14.00;99.90;;;;;;5110894;27;20024;-75
2022/11/15 12:54:24;;;;;;;736.70;249.63;;;13.90;99.90;;;;;;5110549;28;20113;-75
2022/11/15 12:57:02;;;;;;;712.83;240.93;;;13.90;99.90;;;;;;5096269;27;20035;-75
2022/11/15 12:59:47;;;;;;;681.95;232.00;;;13.90;99.90;;;;;;5110857;28;20445;-75
2022/11/15 13:02:41;;;;;;;659.15;225.88;;;13.70;99.90;;;;;;5111239;28;20024;-75
2022/11/15 13:05:19;;;;;;;556.55;187.07;;;13.90;99.90;;;;;;5090872;27;20058;-75
2022/11/15 13:07:45;;;;;;;536.25;182.50;;;13.90;99.90;;;;;;5109393;27;20019;-75
2022/11/15 13:10:13;;;;;;;484.33;162.90;;;13.90;99.90;;;;;;5107254;28;20039;-75
2022/11/15 13:12:45;;;;;;;471.05;163.48;;;13.90;99.90;;;;;;5112121;27;20059;-76
2022/11/15 13:15:17;;;;;;;428.17;156.57;;;13.70;99.90;;;;;;5116343;27;20030;-75
2022/11/15 13:17:44;;;;;;;384.23;135.68;;;13.70;99.90;;;;;;5100819;27;20095;-76
2022/11/15 13:20:16;;;;;;;351.70;135.73;;;13.70;99.90;;;;;;5113424;27;20142;-76
2022/11/15 13:23:14;;;;;;;382.58;145.13;;;13.70;99.90;;;;;;5119327;28;20075;-76
2022/11/15 13:26:16;;;;;;;395.23;147.27;;;13.80;99.90;;;;;;5109382;27;20031;-76
2022/11/15 13:28:49;;;;;;;329.23;127.75;;;13.70;99.90;;;;;;5106744;28;20034;-76
2022/11/15 13:31:45;;;;;;;330.13;130.48;;;13.70;99.90;;;;;;5075866;28;20039;-75
2022/11/15 13:34:27;;;;;;;358.88;146.93;;;13.60;99.90;;;;;;5082446;28;20548;-75
2022/11/15 13:36:54;;;;;;;332.13;139.82;;;13.60;99.90;;;;;;5100942;28;20457;-75
2022/11/15 13:39:34;;;;;;;313.98;132.35;;;13.50;99.90;;;;;;5104566;28;20035;-75
2022/11/15 13:42:00;;;;;;;308.70;130.48;;;13.50;99.90;;;;;;5108815;28;20026;-76
2022/11/15 13:44:31;;;;;;;299.77;126.43;;;13.50;99.90;;;;;;5102815;28;20032;-76
2022/11/15 13:47:29;;;;;;;331.40;133.27;;;13.60;99.90;;;;;;5106543;28;20076;-75
2022/11/15 13:50:00;;;;;;;335.50;137.13;;;13.50;99.90;;;;;;5068101;28;20044;-75
2022/11/15 13:52:28;;;;;;;;;;;13.50;99.90;;;;;;5105341;28;20032;-75
2022/11/15 13:55:03;;;;;;;312.05;121.72;;;13.60;99.90;;;;;;5107453;28;19922;-75